Time;durP1;ratioP1;P1;durP2;ratioP2;P2;SDS_P1;SDS_P2;PMS_P1;PMS_P2;Temp;Humidity;BMP_temperature;BMP_pressure;BME280_temperature;BME280_humidity;BME280_pressure;Samples;Min_cycle;Max_cycle;Signal;HPM_P1;HPM_P2
2023/01/06 00:04:22;;;;;;;0.10;0.10;;;;;;;;;;12957828;22;20051;-86
2023/01/06 00:09:27;;;;;;;0.20;0.20;;;;;;;;;;12950233;22;20027;-85
2023/01/06 00:14:31;;;;;;;0.20;0.20;;;;;;;;;;12949742;22;20030;-85
2023/01/06 00:19:34;;;;;;;0.25;0.20;;;;;;;;;;12946056;22;20087;-83
2023/01/06 00:24:39;;;;;;;0.50;0.20;;;;;;;;;;12949360;22;20034;-87
2023/01/06 00:29:43;;;;;;;0.20;0.20;;;;;;;;;;12955100;22;20023;-84
2023/01/06 00:34:46;;;;;;;0.80;0.20;;;;;;;;;;12948480;22;20065;-85
2023/01/06 00:39:53;;;;;;;1.08;0.20;;;;;;;;;;12944997;22;20095;-84
2023/01/06 00:44:56;;;;;;;0.10;0.10;;;;;;;;;;12943677;22;20363;-84
2023/01/06 00:50:00;;;;;;;0.13;0.13;;;;;;;;;;12949360;22;20596;-84
2023/01/06 00:55:06;;;;;;;0.20;0.17;;;;;;;;;;12919514;22;20098;-83
2023/01/06 01:00:12;;;;;;;0.20;0.10;;;;;;;;;;12943906;22;20015;-85
2023/01/06 01:05:15;;;;;;;0.20;0.20;;;;;;;;;;12948895;22;20480;-87
2023/01/06 01:10:21;;;;;;;0.15;0.15;;;;;;;;;;12953107;22;20106;-87
2023/01/06 01:15:24;;;;;;;0.60;0.60;;;;;;;;;;12952890;22;20055;-89
2023/01/06 01:20:28;;;;;;;1.10;0.68;;;;;;;;;;12949908;22;20028;-85
2023/01/06 01:25:33;;;;;;;0.47;0.35;;;;;;;;;;12946511;22;20247;-86
2023/01/06 01:30:36;;;;;;;0.77;0.43;;;;;;;;;;12947957;22;20030;-84
2023/01/06 01:35:42;;;;;;;0.40;0.40;;;;;;;;;;12925612;22;20586;-85
2023/01/06 01:40:50;;;;;;;1.17;0.40;;;;;;;;;;12947597;22;20028;-84
2023/01/06 01:45:55;;;;;;;0.20;0.20;;;;;;;;;;12932632;22;20115;-83
2023/01/06 01:51:01;;;;;;;0.40;0.30;;;;;;;;;;12945112;22;20032;-84
2023/01/06 01:56:09;;;;;;;0.20;0.17;;;;;;;;;;12957095;22;20070;-86
2023/01/06 02:01:13;;;;;;;0.10;0.10;;;;;;;;;;12955800;22;20039;-86
2023/01/06 02:06:19;;;;;;;0.20;0.20;;;;;;;;;;12953062;22;20077;-86
2023/01/06 02:11:29;;;;;;;0.10;0.10;;;;;;;;;;12954462;22;20102;-83
2023/01/06 02:16:43;;;;;;;0.10;0.10;;;;;;;;;;12957834;22;20023;-88
2023/01/06 02:22:04;;;;;;;0.17;0.17;;;;;;;;;;12934163;22;20023;-84
2023/01/06 02:27:40;;;;;;;0.20;0.20;;;;;;;;;;12927828;22;20019;-84
2023/01/06 02:32:53;;;;;;;0.30;0.20;;;;;;;;;;12940871;22;20029;-84
2023/01/06 02:38:04;;;;;;;0.38;0.10;;;;;;;;;;12955163;22;20388;-86
2023/01/06 02:43:15;;;;;;;0.10;0.10;;;;;;;;;;12959271;22;20296;-89
2023/01/06 02:48:29;;;;;;;0.60;0.20;;;;;;;;;;12954203;22;20023;-86
2023/01/06 02:53:41;;;;;;;0.20;0.20;;;;;;;;;;12959053;22;20034;-89
2023/01/06 02:58:51;;;;;;;0.10;0.10;;;;;;;;;;12950533;22;20035;-86
2023/01/06 03:03:59;;;;;;;0.20;0.10;;;;;;;;;;12955676;22;20030;-84
2023/01/06 03:09:07;;;;;;;0.88;0.30;;;;;;;;;;12952086;22;20024;-86
2023/01/06 03:14:21;;;;;;;0.20;0.20;;;;;;;;;;12955550;22;20099;-86
2023/01/06 03:19:26;;;;;;;0.17;0.10;;;;;;;;;;12957686;22;20416;-86
2023/01/06 03:24:30;;;;;;;0.10;0.10;;;;;;;;;;12953775;22;20099;-84
2023/01/06 03:29:35;;;;;;;0.15;0.15;;;;;;;;;;12945239;22;20079;-84
2023/01/06 03:34:57;;;;;;;0.57;0.23;;;;;;;;;;12952782;22;20499;-86
2023/01/06 03:40:12;;;;;;;0.10;0.10;;;;;;;;;;12947348;22;20628;-85
2023/01/06 03:45:34;;;;;;;0.10;0.10;;;;;;;;;;12957998;22;20074;-89
2023/01/06 03:50:42;;;;;;;0.95;0.10;;;;;;;;;;12959163;22;20023;-88
2023/01/06 03:55:51;;;;;;;0.10;0.10;;;;;;;;;;12959910;22;20020;-87
2023/01/06 04:00:58;;;;;;;0.20;0.20;;;;;;;;;;12958087;22;20034;-90
2023/01/06 04:06:04;;;;;;;0.75;0.40;;;;;;;;;;12944992;22;20578;-85
2023/01/06 04:12:37;;;;;;;0.20;0.20;;;;;;;;;;12947873;22;20031;-86
2023/01/06 04:16:32;;;;;;;0.88;0.50;;;;;;;;;;12956060;22;20107;-88
2023/01/06 04:21:37;;;;;;;0.20;0.20;;;;;;;;;;12955043;22;20031;-88
2023/01/06 04:26:41;;;;;;;0.77;0.27;;;;;;;;;;12950833;22;20102;-84
2023/01/06 04:31:45;;;;;;;0.98;0.50;;;;;;;;;;12945828;22;20495;-87
2023/01/06 04:36:50;;;;;;;1.48;0.90;;;;;;;;;;12930627;22;20032;-87
2023/01/06 04:41:55;;;;;;;1.70;0.57;;;;;;;;;;12950718;22;20095;-88
2023/01/06 04:46:58;;;;;;;0.60;0.43;;;;;;;;;;12947397;22;20078;-85
2023/01/06 04:52:04;;;;;;;0.63;0.55;;;;;;;;;;12941397;22;20724;-85
2023/01/06 04:57:07;;;;;;;0.40;0.33;;;;;;;;;;12951538;22;20365;-87
2023/01/06 05:02:11;;;;;;;1.98;0.60;;;;;;;;;;12946070;22;20027;-85
2023/01/06 05:07:16;;;;;;;0.82;0.40;;;;;;;;;;12953712;22;20047;-86
2023/01/06 05:12:19;;;;;;;0.47;0.40;;;;;;;;;;12947543;22;20032;-84
2023/01/06 05:17:23;;;;;;;0.40;0.40;;;;;;;;;;12942859;22;20030;-85
2023/01/06 05:22:27;;;;;;;0.75;0.45;;;;;;;;;;12942468;22;20028;-86
2023/01/06 05:27:31;;;;;;;0.60;0.45;;;;;;;;;;12946002;22;20023;-84
2023/01/06 05:32:36;;;;;;;0.80;0.40;;;;;;;;;;12961561;22;20020;-87
2023/01/06 05:37:41;;;;;;;1.10;0.70;;;;;;;;;;12945354;22;20508;-83
2023/01/06 05:42:44;;;;;;;1.40;0.50;;;;;;;;;;12960146;22;20103;-88
2023/01/06 05:47:48;;;;;;;0.77;0.35;;;;;;;;;;12975913;22;20030;-84
2023/01/06 05:52:54;;;;;;;0.85;0.50;;;;;;;;;;12950294;22;20023;-83
2023/01/06 05:58:01;;;;;;;0.25;0.25;;;;;;;;;;12970275;22;20074;-86
2023/01/06 06:03:07;;;;;;;0.43;0.43;;;;;;;;;;12962086;22;20111;-85
2023/01/06 06:08:12;;;;;;;0.40;0.35;;;;;;;;;;12959442;22;20027;-86
2023/01/06 06:13:15;;;;;;;0.47;0.43;;;;;;;;;;12956145;22;20023;-86
2023/01/06 06:18:18;;;;;;;1.02;0.43;;;;;;;;;;12956271;22;20083;-84
2023/01/06 06:23:23;;;;;;;0.43;0.40;;;;;;;;;;12959398;22;20034;-85
2023/01/06 06:28:27;;;;;;;0.50;0.25;;;;;;;;;;12966126;22;20019;-84
2023/01/06 06:33:32;;;;;;;0.85;0.20;;;;;;;;;;12963048;22;20020;-84
2023/01/06 06:38:37;;;;;;;1.00;0.40;;;;;;;;;;12964520;22;20040;-83
2023/01/06 06:43:41;;;;;;;1.17;0.60;;;;;;;;;;12989186;22;20037;-86
2023/01/06 06:48:45;;;;;;;0.35;0.35;;;;;;;;;;12966065;22;20055;-84
2023/01/06 06:53:50;;;;;;;0.15;0.15;;;;;;;;;;12959997;22;20394;-84
2023/01/06 06:58:53;;;;;;;0.45;0.20;;;;;;;;;;12950561;22;20367;-84
2023/01/06 07:03:57;;;;;;;3.95;0.55;;;;;;;;;;12951026;22;20570;-84
2023/01/06 07:09:03;;;;;;;0.38;0.32;;;;;;;;;;12950530;22;20580;-85
2023/01/06 07:14:08;;;;;;;3.10;0.60;;;;;;;;;;12974503;22;20023;-88
2023/01/06 07:19:12;;;;;;;0.40;0.30;;;;;;;;;;12977597;22;20020;-89
2023/01/06 07:24:17;;;;;;;1.23;0.40;;;;;;;;;;12955957;22;20115;-85
2023/01/06 07:29:20;;;;;;;1.08;0.50;;;;;;;;;;12968936;22;20024;-84
2023/01/06 07:34:23;;;;;;;0.35;0.35;;;;;;;;;;12967977;22;20488;-85
2023/01/06 07:39:28;;;;;;;0.40;0.35;;;;;;;;;;12957331;22;20020;-83
2023/01/06 07:44:32;;;;;;;0.40;0.30;;;;;;;;;;12970515;22;20353;-88
2023/01/06 07:49:35;;;;;;;0.77;0.30;;;;;;;;;;12961547;22;20074;-92
2023/01/06 07:54:40;;;;;;;0.52;0.28;;;;;;;;;;12975708;22;20047;-87
2023/01/06 07:59:43;;;;;;;0.75;0.30;;;;;;;;;;12974626;22;20511;-87
2023/01/06 08:04:47;;;;;;;0.45;0.22;;;;;;;;;;12981551;22;20023;-87
2023/01/06 08:09:54;;;;;;;0.28;0.28;;;;;;;;;;12974495;22;20031;-91
2023/01/06 08:14:58;;;;;;;0.63;0.30;;;;;;;;;;12979056;22;20081;-86
2023/01/06 08:20:01;;;;;;;0.50;0.20;;;;;;;;;;12975320;22;20338;-85
2023/01/06 08:25:07;;;;;;;0.17;0.17;;;;;;;;;;12948183;22;20031;-85
2023/01/06 08:30:12;;;;;;;0.50;0.30;;;;;;;;;;12918634;22;20024;-84
2023/01/06 08:35:16;;;;;;;0.40;0.32;;;;;;;;;;12963056;22;20508;-85
2023/01/06 08:40:21;;;;;;;0.35;0.22;;;;;;;;;;12971185;22;20084;-85
2023/01/06 08:45:24;;;;;;;0.30;0.30;;;;;;;;;;12974548;22;20434;-90
2023/01/06 08:50:28;;;;;;;0.80;0.30;;;;;;;;;;12995800;22;20027;-86
2023/01/06 08:55:33;;;;;;;1.38;0.60;;;;;;;;;;12979583;22;20106;-87
2023/01/06 09:00:36;;;;;;;0.63;0.32;;;;;;;;;;12969275;22;20437;-86
2023/01/06 09:05:40;;;;;;;0.20;0.20;;;;;;;;;;12958310;22;20043;-85
2023/01/06 09:10:44;;;;;;;0.75;0.40;;;;;;;;;;12942562;22;20140;-86
2023/01/06 09:15:51;;;;;;;0.32;0.30;;;;;;;;;;12940681;22;20031;-84
2023/01/06 09:20:55;;;;;;;0.50;0.20;;;;;;;;;;12941749;22;20024;-85
2023/01/06 09:26:00;;;;;;;0.40;0.38;;;;;;;;;;12944274;22;20030;-85
2023/01/06 09:31:04;;;;;;;0.20;0.20;;;;;;;;;;12943773;22;20030;-85
2023/01/06 09:36:08;;;;;;;0.30;0.30;;;;;;;;;;12962923;22;20410;-89
2023/01/06 09:41:43;;;;;;;0.30;0.30;;;;;;;;;;12972559;22;20024;-88
2023/01/06 09:46:51;;;;;;;0.30;0.30;;;;;;;;;;12967497;22;20024;-87
2023/01/06 09:51:57;;;;;;;0.20;0.20;;;;;;;;;;12982603;22;20030;-87
2023/01/06 09:57:06;;;;;;;0.10;0.10;;;;;;;;;;12959216;22;20089;-85
2023/01/06 10:02:14;;;;;;;0.15;0.15;;;;;;;;;;12944243;22;20051;-85
2023/01/06 10:07:25;;;;;;;0.20;0.20;;;;;;;;;;12922101;22;20027;-87
2023/01/06 10:12:47;;;;;;;0.90;0.40;;;;;;;;;;12982634;22;20508;-89
2023/01/06 10:18:06;;;;;;;0.25;0.25;;;;;;;;;;12958339;22;20086;-85
2023/01/06 10:23:23;;;;;;;0.45;0.40;;;;;;;;;;12943634;22;20110;-85
2023/01/06 10:28:30;;;;;;;0.20;0.20;;;;;;;;;;12941661;22;20028;-86
2023/01/06 10:33:37;;;;;;;0.20;0.20;;;;;;;;;;12941382;22;20047;-85
2023/01/06 10:38:44;;;;;;;0.47;0.30;;;;;;;;;;12942932;22;20028;-85
2023/01/06 10:43:48;;;;;;;0.20;0.20;;;;;;;;;;12943213;22;20586;-85
2023/01/06 10:48:52;;;;;;;0.25;0.20;;;;;;;;;;12948531;22;20024;-86
2023/01/06 10:53:58;;;;;;;0.22;0.20;;;;;;;;;;12944493;22;20066;-88
2023/01/06 10:59:07;;;;;;;0.20;0.20;;;;;;;;;;12969542;22;20336;-88
2023/01/06 11:04:14;;;;;;;0.20;0.20;;;;;;;;;;12970437;22;20055;-87
2023/01/06 11:09:28;;;;;;;0.25;0.20;;;;;;;;;;12979571;22;20046;-90
2023/01/06 11:14:34;;;;;;;0.35;0.20;;;;;;;;;;12977070;22;20022;-86
2023/01/06 11:19:40;;;;;;;0.20;0.20;;;;;;;;;;12942186;22;20089;-84
2023/01/06 11:24:50;;;;;;;0.57;0.20;;;;;;;;;;12967425;22;20050;-85
2023/01/06 11:29:55;;;;;;;0.45;0.43;;;;;;;;;;12966531;22;20023;-85
2023/01/06 11:35:01;;;;;;;0.10;0.10;;;;;;;;;;12941815;22;20024;-84
2023/01/06 11:40:17;;;;;;;0.60;0.43;;;;;;;;;;12966965;22;20408;-84
2023/01/06 11:45:32;;;;;;;;;;;;;;;;;;12967439;22;20139;-84
2023/01/06 11:50:36;;;;;;;0.40;0.40;;;;;;;;;;12946077;22;19916;-84
2023/01/06 11:55:40;;;;;;;1.17;0.80;;;;;;;;;;12943423;22;20127;-86
2023/01/06 12:00:48;;;;;;;0.60;0.30;;;;;;;;;;12962919;22;20024;-88
2023/01/06 12:05:58;;;;;;;0.40;0.30;;;;;;;;;;12960075;22;20102;-87
2023/01/06 12:11:09;;;;;;;0.52;0.40;;;;;;;;;;12953644;22;20024;-87
2023/01/06 12:16:22;;;;;;;0.20;0.20;;;;;;;;;;12957423;22;20019;-86
2023/01/06 12:21:29;;;;;;;1.85;0.47;;;;;;;;;;12960776;22;20020;-87
2023/01/06 12:26:34;;;;;;;0.30;0.30;;;;;;;;;;12951878;22;20024;-85
2023/01/06 12:31:55;;;;;;;0.52;0.38;;;;;;;;;;12939998;22;20102;-84
2023/01/06 12:37:10;;;;;;;0.50;0.30;;;;;;;;;;12940968;22;20110;-85
2023/01/06 12:42:23;;;;;;;0.68;0.40;;;;;;;;;;12972855;22;20042;-87
2023/01/06 12:47:35;;;;;;;1.42;0.40;;;;;;;;;;12983876;22;20512;-88
2023/01/06 12:52:44;;;;;;;0.32;0.32;;;;;;;;;;12946741;22;20024;-87
2023/01/06 12:57:53;;;;;;;0.77;0.30;;;;;;;;;;12953366;22;20034;-89
2023/01/06 13:03:19;;;;;;;0.95;0.50;;;;;;;;;;12974273;22;20107;-87
2023/01/06 13:08:36;;;;;;;0.40;0.20;;;;;;;;;;12963176;22;20216;-85
2023/01/06 13:13:49;;;;;;;0.22;0.22;;;;;;;;;;12939449;22;20194;-85
2023/01/06 13:19:02;;;;;;;0.68;0.28;;;;;;;;;;12957289;22;20030;-85
2023/01/06 13:24:21;;;;;;;0.32;0.32;;;;;;;;;;12948641;22;20232;-87
2023/01/06 13:29:38;;;;;;;2.17;0.50;;;;;;;;;;12959575;22;20028;-86
2023/01/06 13:35:29;;;;;;;1.48;0.60;;;;;;;;;;12947651;22;20050;-85
2023/01/06 13:40:39;;;;;;;0.57;0.40;;;;;;;;;;12789003;22;20035;-87
2023/01/06 13:45:45;;;;;;;0.20;0.20;;;;;;;;;;12983978;22;20027;-89
2023/01/06 13:50:50;;;;;;;0.10;0.10;;;;;;;;;;12964376;22;20023;-87
2023/01/06 13:56:29;;;;;;;0.20;0.20;;;;;;;;;;12965910;22;20027;-85
2023/01/06 14:01:32;;;;;;;0.30;0.20;;;;;;;;;;12965087;22;20408;-89
2023/01/06 14:06:46;;;;;;;0.60;0.50;;;;;;;;;;12957134;22;20078;-88
2023/01/06 14:11:51;;;;;;;0.73;0.30;;;;;;;;;;12937762;22;20099;-87
2023/01/06 14:16:56;;;;;;;0.20;0.20;;;;;;;;;;12957490;22;20086;-86
2023/01/06 14:22:14;;;;;;;0.20;0.20;;;;;;;;;;12953643;22;20016;-87
2023/01/06 14:27:57;;;;;;;0.40;0.30;;;;;;;;;;12956424;22;20028;-85
2023/01/06 14:33:05;;;;;;;0.32;0.32;;;;;;;;;;12942562;22;20456;-85
2023/01/06 14:38:24;;;;;;;1.20;0.40;;;;;;;;;;12941843;22;20110;-85
2023/01/06 14:43:43;;;;;;;0.30;0.30;;;;;;;;;;12950823;22;20073;-87
2023/01/06 14:48:53;;;;;;;0.45;0.30;;;;;;;;;;12961934;22;20658;-86
2023/01/06 14:54:02;;;;;;;0.40;0.40;;;;;;;;;;12969092;22;20098;-87
2023/01/06 14:59:15;;;;;;;0.68;0.40;;;;;;;;;;12958997;22;20388;-86
2023/01/06 15:04:24;;;;;;;0.20;0.20;;;;;;;;;;12955546;22;20039;-85
2023/01/06 15:09:28;;;;;;;0.20;0.20;;;;;;;;;;12954831;22;20023;-89
2023/01/06 15:14:35;;;;;;;0.50;0.40;;;;;;;;;;12965529;22;20031;-89
2023/01/06 15:19:42;;;;;;;;;;;;;;;;;;12955146;22;20031;-84
2023/01/06 15:24:46;;;;;;;0.30;0.30;;;;;;;;;;12939298;22;19994;-84
2023/01/06 15:29:53;;;;;;;0.30;0.30;;;;;;;;;;12938513;22;20034;-85
2023/01/06 15:34:58;;;;;;;0.30;0.30;;;;;;;;;;12937570;22;20345;-86
2023/01/06 15:40:02;;;;;;;0.30;0.30;;;;;;;;;;12938873;22;20507;-84
2023/01/06 15:45:23;;;;;;;0.93;0.32;;;;;;;;;;12940025;22;20024;-84
2023/01/06 15:56:00;;;;;;;0.22;0.22;;;;;;;;;;12866592;22;20019;-83
2023/01/06 16:01:11;;;;;;;0.20;0.20;;;;;;;;;;13017914;22;20023;-83
2023/01/06 16:06:24;;;;;;;0.40;0.30;;;;;;;;;;13038735;22;20029;-84
2023/01/06 16:17:08;;;;;;;0.88;0.30;;;;;;;;;;12979940;22;20073;-84
2023/01/06 16:22:31;;;;;;;1.13;0.20;;;;;;;;;;13047339;22;20019;-84
2023/01/06 16:27:35;;;;;;;0.55;0.45;;;;;;;;;;13033533;22;20469;-83
2023/01/06 16:32:41;;;;;;;0.57;0.40;;;;;;;;;;13031423;22;20387;-84
2023/01/06 16:37:45;;;;;;;;;;;;;;;;;;13046082;22;20050;-84
2023/01/06 16:42:49;;;;;;;0.40;0.40;;;;;;;;;;13035422;22;20211;-84
2023/01/06 16:47:55;;;;;;;1.02;0.30;;;;;;;;;;13032699;22;20156;-84
2023/01/06 16:53:10;;;;;;;0.50;0.32;;;;;;;;;;13006708;22;20035;-84
2023/01/06 16:58:17;;;;;;;0.57;0.20;;;;;;;;;;13031136;22;20026;-84
2023/01/06 17:03:24;;;;;;;0.30;0.30;;;;;;;;;;13032991;22;20125;-84
2023/01/06 17:08:29;;;;;;;0.30;0.30;;;;;;;;;;13033068;22;20027;-83
2023/01/06 17:13:36;;;;;;;0.55;0.30;;;;;;;;;;13038899;22;20015;-83
2023/01/06 17:18:49;;;;;;;0.30;0.30;;;;;;;;;;13033390;22;20024;-84
2023/01/06 17:23:56;;;;;;;0.40;0.30;;;;;;;;;;13038480;22;20379;-83
2023/01/06 17:29:01;;;;;;;0.80;0.40;;;;;;;;;;13033265;22;20117;-83
2023/01/06 17:34:12;;;;;;;0.38;0.30;;;;;;;;;;13027427;22;20641;-84
2023/01/06 17:39:19;;;;;;;0.57;0.50;;;;;;;;;;13024407;22;20031;-84
2023/01/06 17:44:33;;;;;;;0.32;0.30;;;;;;;;;;13036997;22;20039;-84
2023/01/06 17:49:38;;;;;;;0.30;0.30;;;;;;;;;;13038367;22;20047;-83
2023/01/06 18:00:22;;;;;;;0.50;0.47;;;;;;;;;;13036100;22;20020;-84
2023/01/06 18:06:04;;;;;;;0.55;0.40;;;;;;;;;;13034450;22;20038;-83
2023/01/06 18:11:26;;;;;;;0.40;0.40;;;;;;;;;;13035870;22;20094;-84
2023/01/06 18:16:33;;;;;;;0.93;0.43;;;;;;;;;;13024957;22;20054;-85
2023/01/06 18:21:39;;;;;;;0.28;0.28;;;;;;;;;;13049779;22;20482;-84
2023/01/06 18:26:48;;;;;;;1.30;0.30;;;;;;;;;;13034009;22;20023;-84
2023/01/06 18:31:53;;;;;;;0.50;0.20;;;;;;;;;;13037005;22;20028;-84
2023/01/06 18:37:01;;;;;;;0.22;0.22;;;;;;;;;;13047730;22;20015;-85
2023/01/06 18:42:22;;;;;;;0.60;0.30;;;;;;;;;;13035609;22;20039;-84
2023/01/06 18:47:27;;;;;;;1.77;0.20;;;;;;;;;;13030381;22;20030;-83
2023/01/06 18:52:44;;;;;;;0.40;0.40;;;;;;;;;;13033856;22;20034;-83
2023/01/06 18:57:56;;;;;;;0.30;0.30;;;;;;;;;;13033672;22;20478;-83
2023/01/06 19:03:14;;;;;;;1.00;0.60;;;;;;;;;;13034428;22;20098;-83
2023/01/06 19:08:26;;;;;;;0.77;0.65;;;;;;;;;;13009690;22;20106;-84
2023/01/06 19:13:31;;;;;;;0.50;0.43;;;;;;;;;;13035030;22;20641;-84
2023/01/06 19:18:36;;;;;;;0.70;0.30;;;;;;;;;;13035727;22;20601;-83
2023/01/06 19:23:40;;;;;;;0.40;0.40;;;;;;;;;;13034893;22;20101;-84
2023/01/06 19:28:45;;;;;;;0.35;0.30;;;;;;;;;;13039516;22;20071;-84
2023/01/06 19:33:56;;;;;;;0.30;0.30;;;;;;;;;;13037242;22;20101;-84
2023/01/06 19:39:04;;;;;;;0.90;0.20;;;;;;;;;;13005437;22;20039;-84
2023/01/06 19:44:12;;;;;;;0.35;0.28;;;;;;;;;;13033261;22;20415;-84
2023/01/06 19:49:23;;;;;;;0.28;0.28;;;;;;;;;;13032896;22;20053;-84
2023/01/06 19:54:29;;;;;;;0.40;0.20;;;;;;;;;;13033851;22;20031;-83
2023/01/06 19:59:35;;;;;;;0.30;0.22;;;;;;;;;;13033119;22;20112;-84
2023/01/06 20:04:38;;;;;;;0.30;0.20;;;;;;;;;;13033058;22;20105;-84
2023/01/06 20:09:43;;;;;;;0.20;0.20;;;;;;;;;;13032368;22;20019;-83
2023/01/06 20:14:49;;;;;;;0.17;0.17;;;;;;;;;;13030422;22;20027;-84
2023/01/06 20:19:53;;;;;;;0.43;0.43;;;;;;;;;;13028900;22;20077;-84
2023/01/06 20:24:58;;;;;;;0.40;0.40;;;;;;;;;;13030734;22;20041;-84
2023/01/06 20:30:01;;;;;;;0.20;0.20;;;;;;;;;;13031684;22;20023;-84
2023/01/06 20:35:08;;;;;;;0.20;0.20;;;;;;;;;;13032403;22;20025;-84
2023/01/06 20:40:13;;;;;;;0.20;0.20;;;;;;;;;;13032083;22;20084;-84
2023/01/06 20:45:17;;;;;;;0.20;0.20;;;;;;;;;;13034200;22;20033;-84
2023/01/06 20:50:20;;;;;;;0.20;0.20;;;;;;;;;;13032635;22;20600;-84
2023/01/06 20:55:25;;;;;;;0.30;0.30;;;;;;;;;;13029681;22;20019;-84
2023/01/06 21:00:29;;;;;;;0.22;0.22;;;;;;;;;;13032665;22;20025;-84
2023/01/06 21:05:33;;;;;;;0.28;0.28;;;;;;;;;;13018716;22;20023;-82
2023/01/06 21:10:38;;;;;;;0.30;0.30;;;;;;;;;;13011205;22;20042;-82
2023/01/06 21:15:42;;;;;;;0.47;0.25;;;;;;;;;;13037544;22;20023;-85
2023/01/06 21:20:48;;;;;;;0.30;0.30;;;;;;;;;;13040556;22;20517;-84
2023/01/06 21:25:52;;;;;;;0.30;0.30;;;;;;;;;;13038716;22;20023;-84
2023/01/06 21:30:56;;;;;;;0.32;0.30;;;;;;;;;;13038975;22;20106;-85
2023/01/06 21:35:59;;;;;;;0.20;0.20;;;;;;;;;;13039489;22;20536;-85
2023/01/06 21:43:07;;;;;;;0.20;0.20;;;;;;;;;;13038398;22;20051;-85
2023/01/06 21:46:28;;;;;;;0.40;0.20;;;;;;;;;;13038584;22;20061;-84
2023/01/06 21:51:32;;;;;;;0.40;0.17;;;;;;;;;;13038902;22;20023;-85
2023/01/06 21:56:37;;;;;;;0.20;0.20;;;;;;;;;;13040596;22;20084;-85
2023/01/06 22:01:40;;;;;;;0.50;0.20;;;;;;;;;;13012834;22;20435;-85
2023/01/06 22:06:45;;;;;;;0.20;0.20;;;;;;;;;;13039997;22;20050;-85
2023/01/06 22:11:52;;;;;;;0.28;0.28;;;;;;;;;;13040967;22;20043;-85
2023/01/06 22:16:57;;;;;;;0.20;0.20;;;;;;;;;;13038845;22;20034;-84
2023/01/06 22:22:03;;;;;;;0.30;0.30;;;;;;;;;;13038472;22;20459;-82
2023/01/06 22:27:08;;;;;;;0.10;0.10;;;;;;;;;;13039098;22;20521;-82
2023/01/06 22:32:12;;;;;;;0.30;0.20;;;;;;;;;;13038521;22;20107;-85
2023/01/06 22:37:15;;;;;;;0.90;0.45;;;;;;;;;;13041108;22;20272;-84
2023/01/06 22:42:20;;;;;;;0.20;0.20;;;;;;;;;;13038612;22;20537;-85
2023/01/06 22:47:25;;;;;;;0.20;0.20;;;;;;;;;;13049264;22;20424;-85
2023/01/06 22:52:28;;;;;;;0.22;0.20;;;;;;;;;;13038265;22;20558;-84
2023/01/06 22:57:33;;;;;;;0.20;0.20;;;;;;;;;;13039555;22;20016;-83
2023/01/06 23:02:36;;;;;;;0.15;0.15;;;;;;;;;;13038770;22;20058;-85
2023/01/06 23:07:42;;;;;;;0.20;0.20;;;;;;;;;;13038290;22;20019;-85
2023/01/06 23:12:47;;;;;;;0.20;0.20;;;;;;;;;;13037725;22;20074;-82
2023/01/06 23:17:51;;;;;;;0.28;0.28;;;;;;;;;;13041162;22;20496;-85
2023/01/06 23:22:54;;;;;;;0.20;0.20;;;;;;;;;;13035477;22;20023;-85
2023/01/06 23:27:59;;;;;;;0.20;0.20;;;;;;;;;;13034418;22;20046;-83
2023/01/06 23:33:03;;;;;;;0.20;0.20;;;;;;;;;;13035498;22;20023;-85
2023/01/06 23:38:06;;;;;;;0.20;0.20;;;;;;;;;;13036437;22;20069;-85
2023/01/06 23:43:11;;;;;;;0.30;0.20;;;;;;;;;;13034622;22;20098;-82
2023/01/06 23:48:14;;;;;;;0.22;0.20;;;;;;;;;;13035666;22;20393;-84
2023/01/06 23:53:18;;;;;;;0.30;0.30;;;;;;;;;;13031177;22;20066;-85
2023/01/06 23:58:23;;;;;;;0.98;0.30;;;;;;;;;;13034860;22;20065;-82
